Time,TemperatureF,DewpointF,PressureIn,WindDirection,WindDirectionDegrees,WindSpeedMPH,WindSpeedGustMPH,Humidity,HourlyPrecipIn,Conditions,Clouds,dailyrainin,SolarRadiationWatts/m^2,SoftwareType,DateUTC
2013-09-04 00:12:00,60.0,56.0,-100.00,SE,141,0.0,2.0,87,-99.99,,,0.00,0.000000,,2013-09-04 05:12:00,
2013-09-04 00:23:00,60.0,56.0,-100.00,SE,141,0.0,2.0,87,-99.99,,,0.00,0.000000,,2013-09-04 05:23:00,
2013-09-04 00:34:00,60.0,56.0,-100.00,SE,141,0.0,2.0,87,-99.99,,,0.00,0.000000,,2013-09-04 05:34:00,
2013-09-04 00:43:00,60.0,56.0,-100.00,SE,141,0.0,2.0,87,-99.99,,,0.00,0.000000,,2013-09-04 05:43:00,
2013-09-04 01:12:00,59.0,57.0,-100.00,SE,127,0.0,2.0,92,0.00,,,0.00,0.000000,,2013-09-04 06:12:00,
2013-09-04 01:22:00,59.0,57.0,-100.00,SE,127,0.0,2.0,92,0.00,,,0.00,0.000000,,2013-09-04 06:22:00,
2013-09-04 01:32:00,59.0,57.0,-100.00,SE,127,0.0,2.0,92,0.00,,,0.00,0.000000,,2013-09-04 06:32:00,
2013-09-04 01:42:00,59.0,57.0,-100.00,SE,127,0.0,2.0,92,0.00,,,0.00,0.000000,,2013-09-04 06:42:00,
2013-09-04 02:11:00,58.0,56.0,-100.00,NE,47,0.0,2.0,93,0.00,,,0.00,0.000000,,2013-09-04 07:11:00,
2013-09-04 02:22:00,58.0,56.0,-100.00,NE,47,0.0,2.0,93,0.00,,,0.00,0.000000,,2013-09-04 07:22:00,
2013-09-04 02:32:00,58.0,56.0,-100.00,NE,47,0.0,2.0,93,0.00,,,0.00,0.000000,,2013-09-04 07:32:00,
2013-09-04 02:42:00,58.0,56.0,-100.00,NE,47,0.0,2.0,93,0.00,,,0.00,0.000000,,2013-09-04 07:42:00,
2013-09-04 07:12:00,56.0,55.0,-100.00,NE,51,0.0,2.0,97,-99.99,,,-99.99,3.000000,,2013-09-04 12:12:00,
2013-09-04 07:21:00,56.0,55.0,-100.00,NE,51,0.0,2.0,97,-99.99,,,-99.99,3.000000,,2013-09-04 12:21:00,
2013-09-04 07:32:00,56.0,55.0,-100.00,NE,51,0.0,2.0,97,-99.99,,,-99.99,3.000000,,2013-09-04 12:32:00,
2013-09-04 07:42:00,56.0,55.0,-100.00,NE,51,0.0,2.0,97,-99.99,,,-99.99,3.000000,,2013-09-04 12:42:00,
2013-09-04 08:12:00,57.0,56.0,-100.00,NE,50,0.0,0.0,97,0.00,,,0.00,17.000000,,2013-09-04 13:12:00,
2013-09-04 08:22:00,57.0,56.0,-100.00,NE,50,0.0,0.0,97,0.00,,,0.00,17.000000,,2013-09-04 13:22:00,
2013-09-04 08:32:00,57.0,56.0,-100.00,NE,50,0.0,0.0,97,0.00,,,0.00,17.000000,,2013-09-04 13:32:00,
2013-09-04 08:42:00,57.0,56.0,-100.00,NE,50,0.0,0.0,97,0.00,,,0.00,17.000000,,2013-09-04 13:42:00,
2013-09-04 09:11:00,63.0,61.0,-100.00,East,93,2.0,5.0,92,0.00,,,0.00,41.000000,,2013-09-04 14:11:00,
2013-09-04 09:21:00,63.0,61.0,-100.00,East,93,2.0,5.0,92,0.00,,,0.00,41.000000,,2013-09-04 14:21:00,
2013-09-04 09:32:00,63.0,61.0,-100.00,East,93,2.0,5.0,92,0.00,,,0.00,41.000000,,2013-09-04 14:32:00,
2013-09-04 09:42:00,63.0,61.0,-100.00,East,93,2.0,5.0,92,0.00,,,0.00,41.000000,,2013-09-04 14:42:00,
2013-09-04 11:12:00,74.0,60.0,-100.00,West,281,2.0,5.0,61,-99.99,,,0.00,479.000000,,2013-09-04 16:12:00,
2013-09-04 11:23:00,74.0,60.0,-100.00,West,281,2.0,5.0,61,-99.99,,,0.00,479.000000,,2013-09-04 16:23:00,
2013-09-04 11:34:00,74.0,60.0,-100.00,West,281,2.0,5.0,61,-99.99,,,0.00,479.000000,,2013-09-04 16:34:00,
2013-09-04 11:43:00,74.0,60.0,-100.00,West,281,2.0,5.0,61,-99.99,,,0.00,479.000000,,2013-09-04 16:43:00,
2013-09-04 12:13:00,78.0,58.0,-100.00,NE,44,3.0,6.0,50,0.00,,,0.00,728.000000,,2013-09-04 17:13:00,
2013-09-04 12:23:00,78.0,58.0,-100.00,NE,44,3.0,6.0,50,0.00,,,0.00,728.000000,,2013-09-04 17:23:00,
2013-09-04 12:34:00,78.0,58.0,-100.00,NE,44,3.0,6.0,50,0.00,,,0.00,728.000000,,2013-09-04 17:34:00,
2013-09-04 12:42:00,78.0,58.0,-100.00,NE,44,3.0,6.0,50,0.00,,,0.00,728.000000,,2013-09-04 17:42:00,
2013-09-04 13:13:00,81.0,60.0,-100.00,West,266,2.0,6.0,49,0.00,,,0.00,807.000000,,2013-09-04 18:13:00,
2013-09-04 13:22:00,81.0,60.0,-100.00,West,266,2.0,6.0,49,0.00,,,0.00,807.000000,,2013-09-04 18:22:00,
2013-09-04 13:32:00,81.0,60.0,-100.00,West,266,2.0,6.0,49,0.00,,,0.00,807.000000,,2013-09-04 18:32:00,
2013-09-04 13:42:00,81.0,60.0,-100.00,West,266,2.0,6.0,49,0.00,,,0.00,807.000000,,2013-09-04 18:42:00,
2013-09-04 14:11:00,82.0,60.0,-100.00,NW,315,2.0,5.0,48,0.00,,,0.00,814.000000,,2013-09-04 19:11:00,
2013-09-04 14:22:00,82.0,60.0,-100.00,NW,315,2.0,5.0,48,0.00,,,0.00,814.000000,,2013-09-04 19:22:00,
2013-09-04 14:32:00,82.0,60.0,-100.00,NW,315,2.0,5.0,48,0.00,,,0.00,814.000000,,2013-09-04 19:32:00,
2013-09-04 14:42:00,82.0,60.0,-100.00,NW,315,2.0,5.0,48,0.00,,,0.00,814.000000,,2013-09-04 19:42:00,
2013-09-04 15:11:00,82.0,59.0,-100.00,South,188,3.0,5.0,45,0.00,,,0.00,767.000000,,2013-09-04 20:11:00,
2013-09-04 15:22:00,82.0,59.0,-100.00,South,188,3.0,5.0,45,0.00,,,0.00,767.000000,,2013-09-04 20:22:00,
2013-09-04 15:32:00,82.0,59.0,-100.00,South,188,3.0,5.0,45,0.00,,,0.00,767.000000,,2013-09-04 20:32:00,
2013-09-04 15:43:00,82.0,59.0,-100.00,South,188,3.0,5.0,45,0.00,,,0.00,767.000000,,2013-09-04 20:43:00,
2013-09-04 16:12:00,81.0,62.0,-100.00,NE,42,2.0,6.0,52,0.00,,,0.00,656.000000,,2013-09-04 21:12:00,
2013-09-04 16:22:00,81.0,62.0,-100.00,NE,42,2.0,6.0,52,0.00,,,0.00,656.000000,,2013-09-04 21:22:00,
2013-09-04 16:34:00,81.0,62.0,-100.00,NE,42,2.0,6.0,52,0.00,,,0.00,656.000000,,2013-09-04 21:34:00,
2013-09-04 16:44:00,81.0,62.0,-100.00,NE,42,2.0,6.0,52,0.00,,,0.00,656.000000,,2013-09-04 21:44:00,
2013-09-04 17:14:00,81.0,62.0,-100.00,NE,35,2.0,4.0,52,0.00,,,0.00,502.000000,,2013-09-04 22:14:00,
2013-09-04 17:23:00,81.0,62.0,-100.00,NE,35,2.0,4.0,52,0.00,,,0.00,502.000000,,2013-09-04 22:23:00,
2013-09-04 17:33:00,81.0,62.0,-100.00,NE,35,2.0,4.0,52,0.00,,,0.00,502.000000,,2013-09-04 22:33:00,
2013-09-04 17:43:00,81.0,62.0,-100.00,NE,35,2.0,4.0,52,0.00,,,0.00,502.000000,,2013-09-04 22:43:00,
2013-09-04 18:13:00,78.0,61.0,-100.00,NW,321,2.0,4.0,55,0.00,,,0.00,233.000000,,2013-09-04 23:13:00,
2013-09-04 18:22:00,78.0,61.0,-100.00,NW,321,2.0,4.0,55,0.00,,,0.00,233.000000,,2013-09-04 23:22:00,
2013-09-04 18:34:00,78.0,61.0,-100.00,NW,321,2.0,4.0,55,0.00,,,0.00,233.000000,,2013-09-04 23:34:00,
2013-09-04 18:42:00,78.0,61.0,-100.00,NW,321,2.0,4.0,55,0.00,,,0.00,233.000000,,2013-09-04 23:42:00,
2013-09-04 19:42:00,73.0,63.0,-100.00,NNW,340,0.0,2.0,70,0.00,,,0.00,21.000000,,2013-09-05 00:42:00,
2013-09-04 20:22:00,69.0,63.0,-100.00,NW,304,0.0,0.0,80,0.00,,,0.00,2.000000,,2013-09-05 01:22:00,
2013-09-04 20:32:00,69.0,63.0,-100.00,NW,304,0.0,0.0,80,0.00,,,0.00,2.000000,,2013-09-05 01:32:00,
2013-09-04 20:42:00,69.0,63.0,-100.00,NW,304,0.0,0.0,80,0.00,,,0.00,2.000000,,2013-09-05 01:42:00,
2013-09-04 21:12:00,67.0,61.0,-100.00,SSW,208,1.0,2.0,81,0.00,,,0.00,0.000000,,2013-09-05 02:12:00,
2013-09-04 21:22:00,67.0,61.0,-100.00,SSW,208,1.0,2.0,81,0.00,,,0.00,0.000000,,2013-09-05 02:22:00,
2013-09-04 21:32:00,67.0,61.0,-100.00,SSW,208,1.0,2.0,81,0.00,,,0.00,0.000000,,2013-09-05 02:32:00,
2013-09-04 21:42:00,67.0,61.0,-100.00,SSW,208,1.0,2.0,81,0.00,,,0.00,0.000000,,2013-09-05 02:42:00,
2013-09-04 22:12:00,65.0,61.0,-100.00,SSE,155,0.0,2.0,88,0.00,,,0.00,0.000000,,2013-09-05 03:12:00,
2013-09-04 22:22:00,65.0,61.0,-100.00,SSE,155,0.0,2.0,88,0.00,,,0.00,0.000000,,2013-09-05 03:22:00,
2013-09-04 22:34:00,65.0,61.0,-100.00,SSE,155,0.0,2.0,88,0.00,,,0.00,0.000000,,2013-09-05 03:34:00,
2013-09-04 22:45:00,65.0,61.0,-100.00,SSE,155,0.0,2.0,88,0.00,,,0.00,0.000000,,2013-09-05 03:45:00,